Time;durP1;ratioP1;P1;durP2;ratioP2;P2;SDS_P1;SDS_P2;PMS_P1;PMS_P2;Temp;Humidity;BMP_temperature;BMP_pressure;BME280_temperature;BME280_humidity;BME280_pressure;Samples;Min_cycle;Max_cycle;Signal;HPM_P1;HPM_P2
2022/02/02 06:48:20;;;;;;;6.32;2.08;;;;;;;;;;10617114;27;20109;-84
2022/02/02 06:53:38;;;;;;;8.40;2.35;;;;;;;;;;10580636;28;20063;-84
2022/02/02 06:58:51;;;;;;;8.65;2.40;;;;;;;;;;10580432;28;20115;-84
2022/02/02 07:09:29;;;;;;;13.48;2.60;;;;;;;;;;10585397;28;20028;-85
2022/02/02 07:15:01;;;;;;;9.43;3.08;;;;;;;;;;10583894;28;20028;-85
2022/02/02 07:36:24;;;;;;;9.18;2.30;;;;;;;;;;10493640;28;20108;-85
2022/02/02 07:41:30;;;;;;;8.77;2.55;;;;;;;;;;10561637;28;20119;-85
2022/02/02 07:46:32;;;;;;;4.68;1.98;;;;;;;;;;10581992;28;20040;-85
2022/02/02 07:51:34;;;;;;;10.48;2.97;;;;;;;;;;10581702;28;20024;-85
2022/02/02 07:56:43;;;;;;;7.75;2.10;;;;;;;;;;10568638;28;20039;-85
2022/02/02 08:01:45;;;;;;;6.43;1.88;;;;;;;;;;10556620;28;20028;-86
2022/02/02 08:06:52;;;;;;;4.97;1.88;;;;;;;;;;10555281;28;20028;-83
2022/02/02 08:11:55;;;;;;;10.50;2.90;;;;;;;;;;10561860;28;20509;-84
2022/02/02 08:16:56;;;;;;;10.35;3.50;;;;;;;;;;10569406;28;20479;-81
2022/02/02 08:21:57;;;;;;;;;;;;;;;;;;10581270;28;20452;-81
2022/02/02 08:26:58;;;;;;;9.90;3.05;;;;;;;;;;10583131;28;19953;-82
2022/02/02 08:32:01;;;;;;;11.45;3.47;;;;;;;;;;10582439;28;20028;-82
2022/02/02 08:37:03;;;;;;;11.35;4.22;;;;;;;;;;10569687;28;20032;-82
2022/02/02 08:42:06;;;;;;;9.10;2.88;;;;;;;;;;10568992;28;20094;-81
2022/02/02 08:47:09;;;;;;;16.98;4.35;;;;;;;;;;10566268;28;20087;-82
2022/02/02 08:52:10;;;;;;;10.60;3.13;;;;;;;;;;10580909;28;20050;-81
2022/02/02 09:02:20;;;;;;;13.38;3.63;;;;;;;;;;10591780;28;20023;-82
2022/02/02 09:07:21;;;;;;;14.02;4.45;;;;;;;;;;10584879;28;20090;-83
2022/02/02 09:38:43;;;;;;;9.80;2.75;;;;;;;;;;10559589;28;20032;-82
2022/02/02 09:43:47;;;;;;;;;;;;;;;;;;10567883;28;20051;-83
2022/02/02 09:48:53;;;;;;;13.13;4.63;;;;;;;;;;10583974;28;19970;-83
2022/02/02 09:53:57;;;;;;;11.95;4.07;;;;;;;;;;10583757;28;20047;-83
2022/02/02 09:59:20;;;;;;;13.88;5.60;;;;;;;;;;10594220;28;20034;-84
2022/02/02 10:09:57;;;;;;;14.90;5.20;;;;;;;;;;10614960;28;20027;-83
2022/02/02 10:14:52;;;;;;;12.25;3.70;;;;;;;;;;10614825;28;20052;-84
2022/02/02 10:19:53;;;;;;;12.15;4.22;;;;;;;;;;10580664;28;20031;-83
2022/02/02 10:24:54;;;;;;;;;;;;;;;;;;10598283;28;20110;-83
2022/02/02 10:30:04;;;;;;;10.02;3.83;;;;;;;;;;10602279;28;20415;-83
2022/02/02 10:35:07;;;;;;;10.63;3.30;;;;;;;;;;10586784;28;20039;-84
2022/02/02 10:40:09;;;;;;;10.68;3.75;;;;;;;;;;10579122;28;20104;-83
2022/02/02 10:45:17;;;;;;;14.15;5.47;;;;;;;;;;10578282;28;20031;-84
2022/02/02 10:50:33;;;;;;;10.50;3.35;;;;;;;;;;10577565;28;20051;-83
2022/02/02 11:01:06;;;;;;;;;;;;;;;;;;10594188;28;20035;-83
2022/02/02 11:11:27;;;;;;;9.75;3.55;;;;;;;;;;10596726;28;20491;-84
2022/02/02 11:16:28;;;;;;;;;;;;;;;;;;10598092;28;20059;-83
2022/02/02 11:21:33;;;;;;;12.65;3.97;;;;;;;;;;10577806;28;19952;-84
2022/02/02 11:26:38;;;;;;;21.05;11.88;;;;;;;;;;10580440;28;20111;-82
2022/02/02 11:31:58;;;;;;;9.60;3.28;;;;;;;;;;10581931;28;20089;-82
2022/02/02 11:37:03;;;;;;;10.60;3.42;;;;;;;;;;10608403;28;20020;-83
2022/02/02 11:42:15;;;;;;;8.82;3.35;;;;;;;;;;10589879;28;20019;-83
2022/02/02 11:47:23;;;;;;;7.60;2.70;;;;;;;;;;10588678;28;20501;-82
2022/02/02 11:52:32;;;;;;;10.20;3.10;;;;;;;;;;10595062;28;20110;-83
2022/02/02 11:57:53;;;;;;;7.93;3.30;;;;;;;;;;10593035;28;20040;-82
2022/02/02 12:19:17;;;;;;;8.80;2.83;;;;;;;;;;10610754;28;20031;-82
2022/02/02 12:46:43;;;;;;;15.98;9.23;;;;;;;;;;10606857;28;20039;-83
2022/02/02 12:56:41;;;;;;;9.65;4.40;;;;;;;;;;10608667;28;20032;-83
2022/02/02 13:01:44;;;;;;;10.13;4.45;;;;;;;;;;10586402;28;20083;-84
2022/02/02 13:06:45;;;;;;;20.17;12.23;;;;;;;;;;10588230;28;20028;-84
2022/02/02 13:11:46;;;;;;;9.07;4.50;;;;;;;;;;10587787;28;20512;-84
2022/02/02 13:16:49;;;;;;;;;;;;;;;;;;10603120;28;20138;-84
2022/02/02 13:22:03;;;;;;;8.68;4.05;;;;;;;;;;10584275;28;19925;-82
2022/02/02 13:27:13;;;;;;;7.85;3.40;;;;;;;;;;10582127;28;20401;-83
2022/02/02 13:32:20;;;;;;;8.27;4.10;;;;;;;;;;10580960;28;20503;-83
2022/02/02 14:09:10;;;;;;;6.97;2.55;;;;;;;;;;10597638;28;20038;-83
2022/02/02 14:35:30;;;;;;;6.17;2.70;;;;;;;;;;10597424;28;20449;-82
2022/02/02 14:40:41;;;;;;;11.63;3.28;;;;;;;;;;10580030;28;20046;-81
2022/02/02 14:45:48;;;;;;;9.55;2.90;;;;;;;;;;10597565;28;20028;-81
2022/02/02 14:50:59;;;;;;;8.93;2.80;;;;;;;;;;10597414;28;20020;-82
2022/02/02 15:27:56;;;;;;;5.90;2.08;;;;;;;;;;10604922;28;20023;-83
2022/02/02 15:33:00;;;;;;;8.00;2.80;;;;;;;;;;10587370;28;20030;-85
2022/02/02 15:38:05;;;;;;;9.20;3.10;;;;;;;;;;10587731;28;20485;-83
2022/02/02 15:43:26;;;;;;;5.80;2.35;;;;;;;;;;10597751;28;20083;-83
2022/02/02 15:59:18;;;;;;;5.00;2.08;;;;;;;;;;10606569;28;20023;-84
2022/02/02 16:04:25;;;;;;;7.35;2.50;;;;;;;;;;10587562;28;20024;-84
2022/02/02 16:09:33;;;;;;;8.02;4.13;;;;;;;;;;10585664;28;20031;-83
2022/02/02 16:14:48;;;;;;;6.25;2.47;;;;;;;;;;10586918;28;20077;-83
2022/02/02 16:36:03;;;;;;;5.72;2.15;;;;;;;;;;10602287;28;20024;-84
2022/02/02 16:42:54;;;;;;;4.93;2.17;;;;;;;;;;10585137;28;20019;-84
2022/02/02 16:46:33;;;;;;;;;;;;;;;;;;10597041;28;20046;-84
2022/02/02 16:51:34;;;;;;;5.15;2.47;;;;;;;;;;10586297;28;19924;-84
2022/02/02 17:34:25;;;;;;;9.68;3.25;;;;;;;;;;10596547;28;20469;-87
2022/02/02 17:39:36;;;;;;;;;;;;;;;;;;10597447;28;20108;-87
2022/02/02 18:22:49;;;;;;;6.55;2.85;;;;;;;;;;10589471;28;20477;-88
2022/02/02 18:28:00;;;;;;;6.80;2.80;;;;;;;;;;10572113;28;20091;-87
